BELLW 3.25 26.65700 -80.6298 0.000 0.000 20200918_0730 SFWMD BELLW current weather conditions

sailwx.info

Wind from 203 at 3 knots gusting 4

Air temperature 24.6° C
Dewpoint 24.3° C
Water temperature -7999.0° C

Last reported at 2020-Sep-18 08:30 UTC.
Time now 2020-Sep-18 09:39 UTC

Location: N 26°39' W 080°38'.
View on Google Maps.

See reports from other nearby stations

  
Tides and Currents Weather Stations Pressure Air Temp Water Temp Dewpoint Dewpoint Depression Visibility Wind Speed Wind Dir Waves Ship Positions
date/time (UTC)wind fromknots sea level pressurealtimeterstation pressurevisibilityair tempwater tempwave heightnotes
2020-Sep-18 08:30 203 3 gusting 4 24.6-7999.0
2020-Sep-18 08:15 204 3 gusting 4 24.6-7999.0
2020-Sep-18 08:00 203 4 gusting 4 24.4-7999.0
2020-Sep-18 07:45 206 4 gusting 5 24.1-7999.0
2020-Sep-18 07:30 202 3 gusting 4 24.0-7999.0
2020-Sep-18 07:15 200 3 gusting 4 24.0-7999.0
2020-Sep-18 07:00 225 3 gusting 3 24.3-7999.0
2020-Sep-18 06:45 231 3 gusting 3 24.4-7999.0
2020-Sep-18 06:30 236 2 gusting 3 24.3-7999.0
2020-Sep-18 06:15 248 2 gusting 3 24.4-7999.0
2020-Sep-18 06:00 247 3 gusting 3 24.3-7999.0
2020-Sep-18 05:45 252 2 gusting 3 24.4-7999.0
2020-Sep-18 05:30 241 2 gusting 3 24.4-7999.0
2020-Sep-18 05:15 260 2 gusting 2 24.4-7999.0
2020-Sep-18 05:00 245 1 gusting 2 24.6-7999.0
2020-Sep-18 04:45 225 2 gusting 3 24.4-7999.0
2020-Sep-18 04:30 204 2 gusting 2 24.5-7999.0
2020-Sep-18 04:15 218 0 gusting 2 24.6-7999.0
2020-Sep-18 04:00 223 1 gusting 2 24.9-7999.0
2020-Sep-18 03:45 238 2 gusting 2 25.1-7999.0
2020-Sep-18 03:30 260 1 gusting 2 25.2-7999.0
2020-Sep-18 03:15 234 2 gusting 4 25.3-7999.0
2020-Sep-18 02:45 217 3 gusting 4 25.6-7999.0
2020-Sep-18 02:30 232 3 gusting 4 25.8-7999.0
2020-Sep-18 02:15 222 3 gusting 5 25.8-7999.0
2020-Sep-18 01:30 212 4 gusting 5 25.9-7999.0
2020-Sep-18 01:15 215 4 gusting 5 26.0-7999.0
2020-Sep-18 01:00 207 4 gusting 5 26.1-7999.0
2020-Sep-18 00:30 202 2 gusting 3 26.6-7999.0
2020-Sep-18 00:15 209 3 gusting 4 26.8-7999.0
2020-Sep-17 23:45 229 3 gusting 4 27.9-7999.0
2020-Sep-17 23:30 227 3 gusting 4 28.5-7999.0
2020-Sep-17 23:15 220 4 gusting 6 29.1-7999.0
2020-Sep-17 22:45 223 6 gusting 10 29.9-7999.0
2020-Sep-17 22:30 228 6 gusting 10 30.0-7999.0
2020-Sep-17 22:15 234 9 gusting 12 30.4-7999.0
2020-Sep-17 22:00 233 9 gusting 13 31.3-7999.0
2020-Sep-17 21:45 237 8 gusting 12 31.8-7999.0
2020-Sep-17 21:30 236 8 gusting 12 31.5-7999.0
2020-Sep-17 21:15 233 7 gusting 9 31.4-7999.0
2020-Sep-17 20:45 231 8 gusting 11 32.1-7999.0
2020-Sep-17 20:30 219 8 gusting 11 32.4-7999.0
2020-Sep-17 20:15 215 8 gusting 11 32.7-7999.0
2020-Sep-17 20:00 207 8 gusting 12 32.4-7999.0
2020-Sep-17 19:45 209 8 gusting 12 32.5-7999.0
2020-Sep-17 19:30 208 7 gusting 12 32.4-7999.0
2020-Sep-17 19:15 210 8 gusting 13 31.6-7999.0
2020-Sep-17 19:00 214 7 gusting 12 32.0-7999.0
2020-Sep-17 18:45 193 8 gusting 12 32.1-7999.0
2020-Sep-17 18:30 196 7 gusting 11 31.8-7999.0
2020-Sep-17 18:15 194 8 gusting 12 31.6-7999.0
2020-Sep-17 18:00 207 7 gusting 12 31.6-7999.0
2020-Sep-17 17:45 207 8 gusting 12 31.9-7999.0
2020-Sep-17 17:30 204 7 gusting 11 31.5-7999.0
2020-Sep-17 17:15 219 7 gusting 11 31.1-7999.0
2020-Sep-17 17:00 204 6 gusting 10 31.0-7999.0
2020-Sep-17 16:45 198 8 gusting 11 31.4-7999.0
2020-Sep-17 16:30 203 8 gusting 13 30.9-7999.0
2020-Sep-17 16:15 198 8 gusting 11 30.8-7999.0
2020-Sep-17 16:00 201 8 gusting 12 30.1-7999.0
2020-Sep-17 15:45 193 8 gusting 13 30.1-7999.0
2020-Sep-17 15:30 192 8 gusting 12 30.1-7999.0
2020-Sep-17 15:15 203 8 gusting 12 29.8-7999.0
2020-Sep-17 15:00 203 8 gusting 12 29.6-7999.0
2020-Sep-17 14:45 199 7 gusting 12 29.3-7999.0
2020-Sep-17 14:30 188 8 gusting 11 29.0-7999.0
2020-Sep-17 14:15 191 7 gusting 11 28.9-7999.0
2020-Sep-17 14:00 189 6 gusting 9 28.7-7999.0
2020-Sep-17 13:45 187 6 gusting 9 28.4-7999.0
2020-Sep-17 13:30 188 5 gusting 8 27.8-7999.0
2020-Sep-17 13:15 185 5 gusting 7 27.2-7999.0
2020-Sep-17 13:00 183 3 gusting 5 26.2-7999.0
2020-Sep-17 12:45 172 2 gusting 3 25.3-7999.0
2020-Sep-17 12:30 155 2 gusting 3 24.4-7999.0
2020-Sep-17 12:15 154 1 gusting 2 23.6-7999.0
2020-Sep-17 11:45 153 2 gusting 3 23.0-7999.0
2020-Sep-17 11:30 150 1 gusting 2 23.0-7999.0
2020-Sep-17 11:15 158 2 gusting 3 22.9-7999.0
2020-Sep-17 11:00 138 2 gusting 3 22.9-7999.0
2020-Sep-17 10:45 145 2 gusting 3 22.9-7999.0
2020-Sep-17 10:30 139 2 gusting 3 22.9-7999.0
2020-Sep-17 10:15 131 2 gusting 2 23.0-7999.0
2020-Sep-17 10:00 140 2 gusting 3 23.1-7999.0
2020-Sep-17 09:45 147 3 gusting 3 23.2-7999.0
2020-Sep-17 09:30 144 3 gusting 3 23.1-7999.0
2020-Sep-17 09:15 151 2 gusting 3 23.1-7999.0
2020-Sep-17 09:00 144 3 gusting 3 23.0-7999.0
2020-Sep-17 08:45 159 3 gusting 3 22.9-7999.0
2020-Sep-17 08:30 158 2 gusting 3 22.8-7999.0
2020-Sep-17 08:15 154 2 gusting 3 22.8-7999.0
2020-Sep-17 08:00 161 2 gusting 3 22.9-7999.0
2020-Sep-17 07:45 164 2 gusting 3 22.8-7999.0
2020-Sep-17 07:30 144 2 gusting 2 22.9-7999.0
2020-Sep-17 07:15 139 2 gusting 3 23.0-7999.0
2020-Sep-17 07:00 129 3 gusting 4 23.1-7999.0
2020-Sep-17 06:45 116 4 gusting 4 23.1-7999.0
2020-Sep-17 06:30 115 2 gusting 4 23.1-7999.0
2020-Sep-17 06:15 115 1 gusting 2 23.1-7999.0
2020-Sep-17 06:00 132 2 gusting 3 23.1-7999.0
2020-Sep-17 05:45 133 3 gusting 4 23.1-7999.0
2020-Sep-17 05:30 152 1 gusting 3 23.2-7999.0
2020-Sep-17 05:15 158 2 gusting 3 23.3-7999.0
2020-Sep-17 05:00 149 1 gusting 3 23.4-7999.0
2020-Sep-17 04:45 255 1 gusting 2 23.5-7999.0
2020-Sep-17 04:30 201 1 gusting 2 23.4-7999.0
2020-Sep-17 04:15 221 2 gusting 3 23.5-7999.0
2020-Sep-17 04:00 218 3 gusting 4 23.4-7999.0
2020-Sep-17 03:45 248 3 gusting 5 23.4-7999.0
2020-Sep-17 03:30 235 3 gusting 4 23.4-7999.0
2020-Sep-17 03:15 199 4 gusting 6 23.4-7999.0
2020-Sep-17 03:00 166 6 gusting 7 23.4-7999.0
2020-Sep-17 02:45 184 5 gusting 7 23.4-7999.0
2020-Sep-17 02:30 189 7 gusting 11 23.5-7999.0
2020-Sep-17 02:15 184 6 gusting 10 23.7-7999.0
2020-Sep-17 02:00 176 6 gusting 8 24.0-7999.0
2020-Sep-17 01:45 184 6 gusting 10 24.3-7999.0
2020-Sep-17 01:30 173 6 gusting 9 24.5-7999.0
2020-Sep-17 01:15 175 4 gusting 6 24.6-7999.0
2020-Sep-17 01:00 190 4 gusting 7 24.9-7999.0
2020-Sep-17 00:30 212 2 gusting 3 25.5-7999.0
2020-Sep-17 00:15 233 3 gusting 4 25.5-7999.0
2020-Sep-16 23:45 207 2 gusting 5 26.2-7999.0
2020-Sep-16 23:30 235 2 gusting 5 26.4-7999.0
2020-Sep-16 23:15 281 2 gusting 4 27.0-7999.0
2020-Sep-16 22:45 165 4 gusting 6 27.5-7999.0
2020-Sep-16 22:30 142 6 gusting 10 27.6-7999.0
2020-Sep-16 22:00 141 9 gusting 13 28.7-7999.0
2020-Sep-16 21:45 137 9 gusting 15 29.3-7999.0
2020-Sep-16 21:30 126 8 gusting 11 29.3-7999.0
2020-Sep-16 21:15 124 8 gusting 11 29.5-7999.0
2020-Sep-16 20:45 123 8 gusting 11 29.3-7999.0
2020-Sep-16 20:30 129 9 gusting 13 29.4-7999.0
2020-Sep-16 20:00 180 9 gusting 12 31.1-7999.0
2020-Sep-16 19:45 174 8 gusting 13 31.9-7999.0
2020-Sep-16 19:30 184 5 gusting 9 31.7-7999.0
2020-Sep-16 19:15 182 7 gusting 10 32.2-7999.0
2020-Sep-16 18:45 196 7 gusting 12 32.1-7999.0
2020-Sep-16 18:30 204 8 gusting 12 32.2-7999.0
2020-Sep-16 18:00 195 8 gusting 12 31.7-7999.0
2020-Sep-16 17:45 186 6 gusting 10 32.2-7999.0
2020-Sep-16 17:30 199 7 gusting 12 31.7-7999.0
2020-Sep-16 17:00 192 6 gusting 9 31.6-7999.0
2020-Sep-16 16:45 198 6 gusting 9 31.2-7999.0
2020-Sep-16 16:30 188 6 gusting 10 31.2-7999.0
2020-Sep-16 16:15 179 6 gusting 11 30.7-7999.0
2020-Sep-16 15:45 182 6 gusting 9 30.1-7999.0
2020-Sep-16 15:30 177 7 gusting 12 30.5-7999.0
2020-Sep-16 15:15 187 7 gusting 10 30.0-7999.0
2020-Sep-16 14:30 186 6 gusting 10 29.1-7999.0
2020-Sep-16 14:15 171 7 gusting 12 29.2-7999.0
2020-Sep-16 13:45 162 7 gusting 10 28.7-7999.0
2020-Sep-16 13:30 152 5 gusting 8 28.4-7999.0
2020-Sep-16 13:15 153 3 gusting 5 27.9-7999.0
2020-Sep-16 13:00 129 1 gusting 3 26.9-7999.0
2020-Sep-16 12:30 114 1 gusting 2 25.2-7999.0
2020-Sep-16 12:15 078 1 gusting 2 24.5-7999.0
2020-Sep-16 11:45 072 0 gusting 1 23.3-7999.0
2020-Sep-16 11:30 111 0 gusting 1 22.9-7999.0
2020-Sep-16 11:15 097 2 gusting 2 22.6-7999.0
2020-Sep-16 11:00 098 2 gusting 3 22.8-7999.0
2020-Sep-16 10:45 096 2 gusting 2 22.9-7999.0
2020-Sep-16 10:30 087 1 gusting 2 23.0-7999.0
2020-Sep-16 10:00 105 2 gusting 2 22.9-7999.0
2020-Sep-16 09:45 127 2 gusting 3 23.0-7999.0
2020-Sep-16 09:30 125 2 gusting 3 23.0-7999.0
2020-Sep-16 09:15 108 1 gusting 2 23.1-7999.0
2020-Sep-16 09:00 101 1 gusting 2 23.2-7999.0